sensor_id;sensor_type;location;lat;lon;timestamp;pressure;altitude;pressure_sealevel;temperature;humidity
61318;BME280;47201;40.428;-8.436;2023-02-23T00:01:18;100879.50;;;8.42;100.00
61318;BME280;47201;40.428;-8.436;2023-02-23T00:03:20;100875.16;;;8.41;100.00
61318;BME280;47201;40.428;-8.436;2023-02-23T00:05:21;100878.56;;;8.34;100.00
61318;BME280;47201;40.428;-8.436;2023-02-23T00:07:22;100877.66;;;8.29;100.00
61318;BME280;47201;40.428;-8.436;2023-02-23T00:09:41;100877.59;;;8.23;100.00
61318;BME280;47201;40.428;-8.436;2023-02-23T00:11:41;100872.31;;;8.17;100.00
61318;BME280;47201;40.428;-8.436;2023-02-23T00:13:42;100877.47;;;8.10;100.00
61318;BME280;47201;40.428;-8.436;2023-02-23T00:16:05;100868.69;;;8.02;100.00
61318;BME280;47201;40.428;-8.436;2023-02-23T00:18:06;100870.34;;;7.97;100.00
61318;BME280;47201;40.428;-8.436;2023-02-23T00:20:09;100861.69;;;7.98;100.00
61318;BME280;47201;40.428;-8.436;2023-02-23T00:22:10;100864.28;;;7.95;100.00
61318;BME280;47201;40.428;-8.436;2023-02-23T00:24:31;100864.22;;;7.90;100.00
61318;BME280;47201;40.428;-8.436;2023-02-23T00:26:50;100856.34;;;7.87;100.00
61318;BME280;47201;40.428;-8.436;2023-02-23T00:29:14;100854.59;;;7.83;100.00
61318;BME280;47201;40.428;-8.436;2023-02-23T00:31:34;100853.72;;;7.84;100.00
61318;BME280;47201;40.428;-8.436;2023-02-23T00:33:57;100848.47;;;7.81;100.00
61318;BME280;47201;40.428;-8.436;2023-02-23T00:38:08;100859.63;;;7.71;100.00
61318;BME280;47201;40.428;-8.436;2023-02-23T00:40:27;100862.13;;;7.65;100.00
61318;BME280;47201;40.428;-8.436;2023-02-23T00:42:29;100853.47;;;7.64;100.00
61318;BME280;47201;40.428;-8.436;2023-02-23T00:44:49;100859.47;;;7.60;100.00
61318;BME280;47201;40.428;-8.436;2023-02-23T00:46:51;100855.94;;;7.52;100.00
61318;BME280;47201;40.428;-8.436;2023-02-23T00:48:52;100865.41;;;7.48;100.00
61318;BME280;47201;40.428;-8.436;2023-02-23T00:50:57;100868.81;;;7.42;100.00
61318;BME280;47201;40.428;-8.436;2023-02-23T00:52:57;100860.94;;;7.39;100.00
61318;BME280;47201;40.428;-8.436;2023-02-23T00:54:58;100860.03;;;7.36;100.00
61318;BME280;47201;40.428;-8.436;2023-02-23T00:56:59;100859.16;;;7.35;100.00
61318;BME280;47201;40.428;-8.436;2023-02-23T00:58:59;100857.34;;;7.31;100.00
61318;BME280;47201;40.428;-8.436;2023-02-23T01:01:00;100853.88;;;7.29;100.00
61318;BME280;47201;40.428;-8.436;2023-02-23T01:03:01;100853.03;;;7.32;100.00
61318;BME280;47201;40.428;-8.436;2023-02-23T01:05:01;100858.25;;;7.32;100.00
61318;BME280;47201;40.428;-8.436;2023-02-23T01:07:20;100855.59;;;7.30;100.00
61318;BME280;47201;40.428;-8.436;2023-02-23T01:09:24;100852.09;;;7.26;100.00
61318;BME280;47201;40.428;-8.436;2023-02-23T01:11:28;100851.97;;;7.19;100.00
61318;BME280;47201;40.428;-8.436;2023-02-23T01:13:50;100854.50;;;7.11;100.00
61318;BME280;47201;40.428;-8.436;2023-02-23T01:15:51;100855.25;;;7.05;100.00
61318;BME280;47201;40.428;-8.436;2023-02-23T01:17:52;100854.34;;;7.03;100.00
61318;BME280;47201;40.428;-8.436;2023-02-23T01:19:52;100853.44;;;7.01;100.00
61318;BME280;47201;40.428;-8.436;2023-02-23T01:22:12;100849.91;;;6.96;100.00
61318;BME280;47201;40.428;-8.436;2023-02-23T01:24:13;100850.72;;;6.92;100.00
61318;BME280;47201;40.428;-8.436;2023-02-23T01:26:17;100849.81;;;6.90;100.00
61318;BME280;47201;40.428;-8.436;2023-02-23T01:28:37;100853.25;;;6.89;100.00
61318;BME280;47201;40.428;-8.436;2023-02-23T01:30:55;100845.38;;;6.84;100.00
61318;BME280;47201;40.428;-8.436;2023-02-23T01:32:56;100849.66;;;6.80;100.00
61318;BME280;47201;40.428;-8.436;2023-02-23T01:34:56;100849.66;;;6.80;100.00
61318;BME280;47201;40.428;-8.436;2023-02-23T01:36:58;100848.75;;;6.78;100.00
61318;BME280;47201;40.428;-8.436;2023-02-23T01:39:18;100845.31;;;6.79;100.00
61318;BME280;47201;40.428;-8.436;2023-02-23T01:41:18;100845.28;;;6.78;100.00
61318;BME280;47201;40.428;-8.436;2023-02-23T01:43:20;100846.97;;;6.74;100.00
61318;BME280;47201;40.428;-8.436;2023-02-23T01:45:29;100840.88;;;6.72;100.00
61318;BME280;47201;40.428;-8.436;2023-02-23T01:47:49;100841.75;;;6.73;100.00
61318;BME280;47201;40.428;-8.436;2023-02-23T01:49:51;100840.00;;;6.70;100.00
61318;BME280;47201;40.428;-8.436;2023-02-23T01:54:45;100837.34;;;6.69;100.00
61318;BME280;47201;40.428;-8.436;2023-02-23T01:57:09;100851.19;;;6.67;100.00
61318;BME280;47201;40.428;-8.436;2023-02-23T01:59:40;100846.03;;;6.69;100.00
61318;BME280;47201;40.428;-8.436;2023-02-23T02:01:41;100839.09;;;6.68;100.00
61318;BME280;47201;40.428;-8.436;2023-02-23T02:03:46;100839.09;;;6.68;100.00
61318;BME280;47201;40.428;-8.436;2023-02-23T02:06:06;100842.59;;;6.70;100.00
61318;BME280;47201;40.428;-8.436;2023-02-23T02:08:11;100836.44;;;6.66;100.00
61318;BME280;47201;40.428;-8.436;2023-02-23T02:10:30;100830.31;;;6.63;100.00
61318;BME280;47201;40.428;-8.436;2023-02-23T02:13:02;100826.84;;;6.61;100.00
61318;BME280;47201;40.428;-8.436;2023-02-23T02:15:24;100835.38;;;6.54;100.00
61318;BME280;47201;40.428;-8.436;2023-02-23T02:30:03;100828.88;;;6.28;100.00
61318;BME280;47201;40.428;-8.436;2023-02-23T02:32:37;100817.59;;;6.28;100.00
61318;BME280;47201;40.428;-8.436;2023-02-23T02:44:14;100820.84;;;6.16;100.00
61318;BME280;47201;40.428;-8.436;2023-02-23T02:46:18;100826.03;;;6.14;100.00
61318;BME280;47201;40.428;-8.436;2023-02-23T02:48:30;100820.81;;;6.13;100.00
61318;BME280;47201;40.428;-8.436;2023-02-23T02:50:53;100813.03;;;6.14;100.00
61318;BME280;47201;40.428;-8.436;2023-02-23T02:53:20;100813.03;;;6.14;100.00
61318;BME280;47201;40.428;-8.436;2023-02-23T02:55:41;100815.56;;;6.11;100.00
61318;BME280;47201;40.428;-8.436;2023-02-23T02:58:02;100811.16;;;6.06;100.00
61318;BME280;47201;40.428;-8.436;2023-02-23T03:00:30;100803.31;;;6.04;100.00
61318;BME280;47201;40.428;-8.436;2023-02-23T03:02:53;100799.00;;;6.03;100.00
61318;BME280;47201;40.428;-8.436;2023-02-23T03:05:17;100799.78;;;5.99;100.00
61318;BME280;47201;40.428;-8.436;2023-02-23T03:08:05;100801.44;;;5.97;100.00
61318;BME280;47201;40.428;-8.436;2023-02-23T03:10:46;100800.56;;;5.95;100.00
61318;BME280;47201;40.428;-8.436;2023-02-23T03:13:38;100799.69;;;5.96;100.00
61318;BME280;47201;40.428;-8.436;2023-02-23T03:16:33;100799.56;;;5.90;100.00
61318;BME280;47201;40.428;-8.436;2023-02-23T03:19:25;100796.94;;;5.86;100.00
61318;BME280;47201;40.428;-8.436;2023-02-23T03:24:33;100802.06;;;5.83;100.00
61318;BME280;47201;40.428;-8.436;2023-02-23T03:32:15;100798.47;;;5.77;100.00
61318;BME280;47201;40.428;-8.436;2023-02-23T03:35:16;100796.56;;;5.68;100.00
61318;BME280;47201;40.428;-8.436;2023-02-23T03:37:57;100796.53;;;5.66;100.00
61318;BME280;47201;40.428;-8.436;2023-02-23T03:40:25;100800.78;;;5.63;100.00
61318;BME280;47201;40.428;-8.436;2023-02-23T03:43:08;100792.13;;;5.62;100.00
61318;BME280;47201;40.428;-8.436;2023-02-23T03:45:28;100789.47;;;5.59;100.00
61318;BME280;47201;40.428;-8.436;2023-02-23T03:47:48;100781.59;;;5.54;100.00
61318;BME280;47201;40.428;-8.436;2023-02-23T03:50:14;100784.09;;;5.50;100.00
61318;BME280;47201;40.428;-8.436;2023-02-23T03:52:45;100778.78;;;5.44;100.00
61318;BME280;47201;40.428;-8.436;2023-02-23T03:55:11;100784.78;;;5.41;100.00
61318;BME280;47201;40.428;-8.436;2023-02-23T03:57:33;100783.88;;;5.39;100.00
61318;BME280;47201;40.428;-8.436;2023-02-23T04:00:15;100775.06;;;5.31;100.00
61318;BME280;47201;40.428;-8.436;2023-02-23T04:02:53;100779.28;;;5.26;100.00
61318;BME280;47201;40.428;-8.436;2023-02-23T04:05:34;100774.91;;;5.23;100.00
61318;BME280;47201;40.428;-8.436;2023-02-23T04:07:55;100779.19;;;5.22;100.00
61318;BME280;47201;40.428;-8.436;2023-02-23T04:10:35;100778.25;;;5.19;100.00
61318;BME280;47201;40.428;-8.436;2023-02-23T04:13:17;100776.47;;;5.15;100.00
61318;BME280;47201;40.428;-8.436;2023-02-23T04:15:22;100773.75;;;5.08;100.00
61318;BME280;47201;40.428;-8.436;2023-02-23T04:17:26;100767.63;;;5.06;100.00
61318;BME280;47201;40.428;-8.436;2023-02-23T04:19:27;100766.63;;;5.00;100.00
61318;BME280;47201;40.428;-8.436;2023-02-23T04:21:29;100779.50;;;4.95;100.00
61318;BME280;47201;40.428;-8.436;2023-02-23T04:23:30;100776.78;;;4.90;100.00
61318;BME280;47201;40.428;-8.436;2023-02-23T04:25:31;100773.25;;;4.87;100.00
61318;BME280;47201;40.428;-8.436;2023-02-23T04:27:50;100783.47;;;4.81;100.00
61318;BME280;47201;40.428;-8.436;2023-02-23T04:29:50;100779.06;;;4.76;100.00
61318;BME280;47201;40.428;-8.436;2023-02-23T04:32:15;100784.16;;;4.73;100.00
61318;BME280;47201;40.428;-8.436;2023-02-23T04:34:16;100778.09;;;4.71;100.00
61318;BME280;47201;40.428;-8.436;2023-02-23T04:36:17;100784.16;;;4.73;100.00
61318;BME280;47201;40.428;-8.436;2023-02-23T04:38:36;100789.28;;;4.70;100.00
61318;BME280;47201;40.428;-8.436;2023-02-23T04:40:56;100785.75;;;4.67;100.00
61318;BME280;47201;40.428;-8.436;2023-02-23T04:42:57;100783.97;;;4.64;100.00
61318;BME280;47201;40.428;-8.436;2023-02-23T04:44:57;100781.31;;;4.63;100.00
61318;BME280;47201;40.428;-8.436;2023-02-23T04:46:58;100778.72;;;4.63;100.00
61318;BME280;47201;40.428;-8.436;2023-02-23T04:49:17;100772.72;;;4.64;100.00
61318;BME280;47201;40.428;-8.436;2023-02-23T04:51:36;100773.59;;;4.64;100.00
61318;BME280;47201;40.428;-8.436;2023-02-23T04:53:37;100784.69;;;4.58;100.00
61318;BME280;47201;40.428;-8.436;2023-02-23T04:55:37;100775.13;;;4.56;100.00
61318;BME280;47201;40.428;-8.436;2023-02-23T04:57:38;100772.53;;;4.56;100.00
61318;BME280;47201;40.428;-8.436;2023-02-23T04:59:38;100773.22;;;4.49;100.00
61318;BME280;47201;40.428;-8.436;2023-02-23T05:01:39;100773.97;;;4.44;100.00
61318;BME280;47201;40.428;-8.436;2023-02-23T05:03:40;100771.19;;;4.35;100.00
61318;BME280;47201;40.428;-8.436;2023-02-23T05:05:40;100785.63;;;4.27;100.00
61318;BME280;47201;40.428;-8.436;2023-02-23T05:08:00;100777.53;;;4.15;100.00
61318;BME280;47201;40.428;-8.436;2023-02-23T05:10:19;100774.81;;;4.08;100.00
61318;BME280;47201;40.428;-8.436;2023-02-23T05:12:38;100770.34;;;4.03;100.00
61318;BME280;47201;40.428;-8.436;2023-02-23T05:14:57;100773.66;;;3.97;100.00
61318;BME280;47201;40.428;-8.436;2023-02-23T05:16:58;100776.41;;;4.03;100.00
61318;BME280;47201;40.428;-8.436;2023-02-23T05:18:59;100774.63;;;4.01;100.00
61318;BME280;47201;40.428;-8.436;2023-02-23T05:21:03;100771.88;;;3.94;100.00
61318;BME280;47201;40.428;-8.436;2023-02-23T05:23:04;100769.09;;;3.88;100.00
61318;BME280;47201;40.428;-8.436;2023-02-23T05:25:05;100775.81;;;3.81;100.00
61318;BME280;47201;40.428;-8.436;2023-02-23T05:27:24;100759.22;;;3.73;100.00
61318;BME280;47201;40.428;-8.436;2023-02-23T05:29:43;100763.34;;;3.67;100.00
61318;BME280;47201;40.428;-8.436;2023-02-23T05:31:44;100767.56;;;3.63;100.00
61318;BME280;47201;40.428;-8.436;2023-02-23T05:33:45;100760.84;;;3.70;100.00
61318;BME280;47201;40.428;-8.436;2023-02-23T05:36:04;100774.63;;;3.69;100.00
61318;BME280;47201;40.428;-8.436;2023-02-23T05:38:04;100770.28;;;3.68;100.00
61318;BME280;47201;40.428;-8.436;2023-02-23T05:40:05;100764.31;;;3.70;100.00
61318;BME280;47201;40.428;-8.436;2023-02-23T05:42:24;100762.78;;;3.77;100.00
61318;BME280;47201;40.428;-8.436;2023-02-23T05:44:25;100762.75;;;3.75;100.00
61318;BME280;47201;40.428;-8.436;2023-02-23T05:46:44;100767.91;;;3.75;100.00
61318;BME280;47201;40.428;-8.436;2023-02-23T05:49:03;100767.78;;;3.71;100.00
61318;BME280;47201;40.428;-8.436;2023-02-23T05:51:04;100768.50;;;3.67;100.00
61318;BME280;47201;40.428;-8.436;2023-02-23T05:53:05;100764.84;;;3.58;100.00
61318;BME280;47201;40.428;-8.436;2023-02-23T05:55:24;100762.97;;;3.53;100.00
61318;BME280;47201;40.428;-8.436;2023-02-23T05:57:25;100763.81;;;3.52;100.00
61318;BME280;47201;40.428;-8.436;2023-02-23T05:59:27;100765.47;;;3.49;100.00
61318;BME280;47201;40.428;-8.436;2023-02-23T06:01:27;100768.09;;;3.51;100.00
61318;BME280;47201;40.428;-8.436;2023-02-23T06:03:46;100757.69;;;3.48;100.00
61318;BME280;47201;40.428;-8.436;2023-02-23T06:06:06;100762.75;;;3.45;100.00
61318;BME280;47201;40.428;-8.436;2023-02-23T06:08:06;100754.06;;;3.43;100.00
61318;BME280;47201;40.428;-8.436;2023-02-23T06:10:07;100753.09;;;3.39;100.00
61318;BME280;47201;40.428;-8.436;2023-02-23T06:12:27;100755.66;;;3.38;100.00
61318;BME280;47201;40.428;-8.436;2023-02-23T06:14:46;100754.78;;;3.37;100.00
61318;BME280;47201;40.428;-8.436;2023-02-23T06:16:47;100761.56;;;3.33;100.00
61318;BME280;47201;40.428;-8.436;2023-02-23T06:18:47;100755.38;;;3.28;100.00
61318;BME280;47201;40.428;-8.436;2023-02-23T06:20:49;100758.63;;;3.21;100.00
61318;BME280;47201;40.428;-8.436;2023-02-23T06:23:08;100759.53;;;3.23;100.00
61318;BME280;47201;40.428;-8.436;2023-02-23T06:25:08;100743.22;;;3.24;100.00
61318;BME280;47201;40.428;-8.436;2023-02-23T06:27:11;100758.03;;;3.30;100.00
61318;BME280;47201;40.428;-8.436;2023-02-23T06:29:14;100751.91;;;3.26;100.00
61318;BME280;47201;40.428;-8.436;2023-02-23T06:31:33;100748.28;;;3.21;100.00
61318;BME280;47201;40.428;-8.436;2023-02-23T06:33:34;100742.88;;;3.12;100.00
61318;BME280;47201;40.428;-8.436;2023-02-23T06:35:35;100747.09;;;3.10;100.00
61318;BME280;47201;40.428;-8.436;2023-02-23T06:37:54;100748.09;;;3.15;100.00
61318;BME280;47201;40.428;-8.436;2023-02-23T06:40:12;100741.25;;;3.15;100.00
61318;BME280;47201;40.428;-8.436;2023-02-23T06:42:31;100749.69;;;3.10;100.00
61318;BME280;47201;40.428;-8.436;2023-02-23T06:44:53;100749.50;;;3.04;100.00
61318;BME280;47201;40.428;-8.436;2023-02-23T06:47:12;100746.06;;;2.76;100.00
61318;BME280;47201;40.428;-8.436;2023-02-23T06:49:31;100744.38;;;2.49;100.00
61318;BME280;47201;40.428;-8.436;2023-02-23T06:51:50;100742.53;;;2.45;100.00
61318;BME280;47201;40.428;-8.436;2023-02-23T06:54:12;100741.84;;;2.50;100.00
61318;BME280;47201;40.428;-8.436;2023-02-23T06:56:13;100748.84;;;2.53;100.00
61318;BME280;47201;40.428;-8.436;2023-02-23T06:58:13;100740.34;;;2.57;100.00
61318;BME280;47201;40.428;-8.436;2023-02-23T07:00:14;100742.13;;;2.60;100.00
61318;BME280;47201;40.428;-8.436;2023-02-23T07:02:17;100742.06;;;2.57;100.00
61318;BME280;47201;40.428;-8.436;2023-02-23T07:04:17;100740.63;;;2.66;100.00
61318;BME280;47201;40.428;-8.436;2023-02-23T07:06:36;100749.28;;;2.68;100.00
61318;BME280;47201;40.428;-8.436;2023-02-23T07:08:37;100742.41;;;2.67;100.00
61318;BME280;47201;40.428;-8.436;2023-02-23T07:10:38;100744.75;;;2.61;100.00
61318;BME280;47201;40.428;-8.436;2023-02-23T07:12:38;100742.88;;;2.56;100.00
61318;BME280;47201;40.428;-8.436;2023-02-23T07:14:57;100736.78;;;2.53;100.00
61318;BME280;47201;40.428;-8.436;2023-02-23T07:16:58;100737.56;;;2.51;100.00
61318;BME280;47201;40.428;-8.436;2023-02-23T07:19:17;100741.47;;;2.65;100.00
61318;BME280;47201;40.428;-8.436;2023-02-23T07:21:36;100733.22;;;2.77;100.00
61318;BME280;47201;40.428;-8.436;2023-02-23T07:23:56;100734.88;;;2.75;100.00
61318;BME280;47201;40.428;-8.436;2023-02-23T07:26:15;100731.31;;;2.72;100.00
61318;BME280;47201;40.428;-8.436;2023-02-23T07:28:18;100728.59;;;2.67;100.00
61318;BME280;47201;40.428;-8.436;2023-02-23T07:30:19;100744.88;;;2.64;100.00
61318;BME280;47201;40.428;-8.436;2023-02-23T07:32:42;100737.88;;;2.60;100.00
61318;BME280;47201;40.428;-8.436;2023-02-23T07:34:43;100740.22;;;2.54;100.00
61318;BME280;47201;40.428;-8.436;2023-02-23T07:37:04;100740.16;;;2.51;100.00
61318;BME280;47201;40.428;-8.436;2023-02-23T07:39:23;100747.22;;;2.57;100.00
61318;BME280;47201;40.428;-8.436;2023-02-23T07:41:43;100751.88;;;2.68;100.00
61318;BME280;47201;40.428;-8.436;2023-02-23T07:43:51;100742.66;;;2.77;100.00
61318;BME280;47201;40.428;-8.436;2023-02-23T07:45:52;100737.88;;;2.89;100.00
61318;BME280;47201;40.428;-8.436;2023-02-23T07:48:11;100743.38;;;3.00;100.00
61318;BME280;47201;40.428;-8.436;2023-02-23T07:50:12;100749.81;;;3.14;100.00
61318;BME280;47201;40.428;-8.436;2023-02-23T07:52:15;100743.28;;;3.58;100.00
61318;BME280;47201;40.428;-8.436;2023-02-23T07:54:16;100731.84;;;4.15;100.00
61318;BME280;47201;40.428;-8.436;2023-02-23T07:56:17;100742.19;;;4.50;100.00
61318;BME280;47201;40.428;-8.436;2023-02-23T07:58:17;100741.63;;;4.64;100.00
61318;BME280;47201;40.428;-8.436;2023-02-23T08:00:36;100739.16;;;4.68;100.00
61318;BME280;47201;40.428;-8.436;2023-02-23T08:02:57;100739.84;;;4.99;100.00
61318;BME280;47201;40.428;-8.436;2023-02-23T08:04:59;100746.53;;;5.29;100.00
61318;BME280;47201;40.428;-8.436;2023-02-23T08:07:18;100737.28;;;6.37;100.00
61318;BME280;47201;40.428;-8.436;2023-02-23T08:09:19;100732.56;;;8.14;100.00
61318;BME280;47201;40.428;-8.436;2023-02-23T08:11:19;100736.94;;;9.87;89.08
61318;BME280;47201;40.428;-8.436;2023-02-23T08:13:21;100728.09;;;11.33;78.60
61318;BME280;47201;40.428;-8.436;2023-02-23T08:15:42;100733.13;;;12.85;71.09
61318;BME280;47201;40.428;-8.436;2023-02-23T08:17:43;100736.34;;;13.79;63.53
61318;BME280;47201;40.428;-8.436;2023-02-23T08:19:43;100732.81;;;14.90;56.24
61318;BME280;47201;40.428;-8.436;2023-02-23T08:21:44;100732.19;;;16.04;56.37
61318;BME280;47201;40.428;-8.436;2023-02-23T08:23:45;100738.69;;;16.94;50.51
61318;BME280;47201;40.428;-8.436;2023-02-23T08:26:04;100735.47;;;17.46;49.38
61318;BME280;47201;40.428;-8.436;2023-02-23T08:28:04;100734.25;;;17.86;47.66
61318;BME280;47201;40.428;-8.436;2023-02-23T08:30:06;100733.75;;;18.03;47.32
61318;BME280;47201;40.428;-8.436;2023-02-23T08:32:27;100740.66;;;18.61;47.45
61318;BME280;47201;40.428;-8.436;2023-02-23T08:34:47;100745.28;;;19.30;45.62
61318;BME280;47201;40.428;-8.436;2023-02-23T08:37:06;100741.22;;;19.91;46.38
61318;BME280;47201;40.428;-8.436;2023-02-23T08:39:08;100746.50;;;20.36;44.21
61318;BME280;47201;40.428;-8.436;2023-02-23T08:41:27;100743.31;;;21.10;45.09
61318;BME280;47201;40.428;-8.436;2023-02-23T08:43:46;100744.03;;;22.09;44.82
61318;BME280;47201;40.428;-8.436;2023-02-23T08:45:46;100744.59;;;22.16;45.99
61318;BME280;47201;40.428;-8.436;2023-02-23T08:50:49;100748.09;;;22.71;48.29
61318;BME280;47201;40.428;-8.436;2023-02-23T08:52:50;100749.47;;;21.69;53.38
61318;BME280;47201;40.428;-8.436;2023-02-23T08:54:50;100752.66;;;21.78;54.31
61318;BME280;47201;40.428;-8.436;2023-02-23T08:56:53;100762.28;;;21.80;56.57
61318;BME280;47201;40.428;-8.436;2023-02-23T08:58:55;100756.94;;;21.99;56.60
61318;BME280;47201;40.428;-8.436;2023-02-23T09:00:56;100757.34;;;22.46;56.39
61318;BME280;47201;40.428;-8.436;2023-02-23T09:02:57;100757.88;;;22.70;57.89
61318;BME280;47201;40.428;-8.436;2023-02-23T09:04:58;100759.91;;;22.82;58.58
61318;BME280;47201;40.428;-8.436;2023-02-23T09:06:58;100752.00;;;23.32;58.29
61318;BME280;47201;40.428;-8.436;2023-02-23T09:08:59;100754.91;;;23.27;59.52
61318;BME280;47201;40.428;-8.436;2023-02-23T09:11:00;100752.94;;;23.47;59.52
61318;BME280;47201;40.428;-8.436;2023-02-23T09:13:01;100742.53;;;23.90;59.92
61318;BME280;47201;40.428;-8.436;2023-02-23T09:15:02;100740.22;;;24.16;60.14
61318;BME280;47201;40.428;-8.436;2023-02-23T09:17:21;100747.25;;;23.04;63.44
61318;BME280;47201;40.428;-8.436;2023-02-23T09:19:22;100737.88;;;23.12;63.83
61318;BME280;47201;40.428;-8.436;2023-02-23T09:21:22;100745.97;;;24.24;61.71
61318;BME280;47201;40.428;-8.436;2023-02-23T09:23:26;100749.03;;;25.23;60.56
61318;BME280;47201;40.428;-8.436;2023-02-23T09:25:27;100749.56;;;23.93;63.47
61318;BME280;47201;40.428;-8.436;2023-02-23T09:27:29;100759.06;;;22.82;65.87
61318;BME280;47201;40.428;-8.436;2023-02-23T09:29:33;100755.00;;;22.40;67.65
61318;BME280;47201;40.428;-8.436;2023-02-23T09:31:37;100750.38;;;21.30;70.72
61318;BME280;47201;40.428;-8.436;2023-02-23T09:33:38;100753.72;;;21.54;69.56
61318;BME280;47201;40.428;-8.436;2023-02-23T09:35:39;100757.16;;;21.95;68.71
61318;BME280;47201;40.428;-8.436;2023-02-23T09:37:39;100753.94;;;21.88;69.38
61318;BME280;47201;40.428;-8.436;2023-02-23T09:39:40;100754.22;;;21.82;69.40
61318;BME280;47201;40.428;-8.436;2023-02-23T09:44:01;100768.16;;;22.06;69.58
61318;BME280;47201;40.428;-8.436;2023-02-23T09:48:24;100752.34;;;21.06;72.19
61318;BME280;47201;40.428;-8.436;2023-02-23T09:50:26;100753.75;;;21.15;71.04
61318;BME280;47201;40.428;-8.436;2023-02-23T09:52:47;100751.78;;;20.99;71.87
61318;BME280;47201;40.428;-8.436;2023-02-23T09:54:48;100746.69;;;20.52;72.55
61318;BME280;47201;40.428;-8.436;2023-02-23T09:56:49;100736.75;;;20.77;71.90
61318;BME280;47201;40.428;-8.436;2023-02-23T09:58:52;100739.81;;;20.48;74.29
61318;BME280;47201;40.428;-8.436;2023-02-23T10:03:23;100743.19;;;21.32;72.67
61318;BME280;47201;40.428;-8.436;2023-02-23T10:05:27;100735.34;;;22.23;69.49
61318;BME280;47201;40.428;-8.436;2023-02-23T10:07:40;100735.44;;;21.85;70.25
61318;BME280;47201;40.428;-8.436;2023-02-23T10:10:25;100739.47;;;22.83;68.95
61318;BME280;47201;40.428;-8.436;2023-02-23T10:18:45;100731.06;;;22.21;70.22
61318;BME280;47201;40.428;-8.436;2023-02-23T10:23:10;100742.78;;;22.53;69.08
61318;BME280;47201;40.428;-8.436;2023-02-23T10:25:13;100737.41;;;22.88;69.11
61318;BME280;47201;40.428;-8.436;2023-02-23T10:27:18;100734.91;;;21.96;70.36
61318;BME280;47201;40.428;-8.436;2023-02-23T10:31:43;100743.84;;;21.37;71.71
61318;BME280;47201;40.428;-8.436;2023-02-23T10:33:45;100746.81;;;22.25;70.73
61318;BME280;47201;40.428;-8.436;2023-02-23T10:36:11;100742.66;;;21.64;71.13
61318;BME280;47201;40.428;-8.436;2023-02-23T10:38:16;100739.53;;;21.92;70.90
61318;BME280;47201;40.428;-8.436;2023-02-23T10:40:19;100733.47;;;21.12;72.23
61318;BME280;47201;40.428;-8.436;2023-02-23T10:42:22;100741.09;;;21.60;71.96
61318;BME280;47201;40.428;-8.436;2023-02-23T10:44:24;100740.81;;;22.20;70.30
61318;BME280;47201;40.428;-8.436;2023-02-23T10:46:26;100736.84;;;23.33;68.29
61318;BME280;47201;40.428;-8.436;2023-02-23T10:48:35;100734.13;;;22.83;69.22
61318;BME280;47201;40.428;-8.436;2023-02-23T10:50:40;100728.78;;;23.50;68.43
61318;BME280;47201;40.428;-8.436;2023-02-23T10:52:44;100733.69;;;23.42;67.75
61318;BME280;47201;40.428;-8.436;2023-02-23T10:54:46;100728.78;;;23.01;69.17
61318;BME280;47201;40.428;-8.436;2023-02-23T10:56:47;100731.28;;;21.60;71.17
61318;BME280;47201;40.428;-8.436;2023-02-23T10:58:51;100724.59;;;21.32;71.68
61318;BME280;47201;40.428;-8.436;2023-02-23T11:01:01;100719.78;;;21.40;71.68
61318;BME280;47201;40.428;-8.436;2023-02-23T11:03:26;100727.16;;;22.28;70.59
61318;BME280;47201;40.428;-8.436;2023-02-23T11:05:30;100716.09;;;22.18;70.25
61318;BME280;47201;40.428;-8.436;2023-02-23T11:07:32;100712.56;;;22.17;70.61
61318;BME280;47201;40.428;-8.436;2023-02-23T11:09:33;100706.19;;;22.57;69.33
61318;BME280;47201;40.428;-8.436;2023-02-23T11:11:36;100712.47;;;22.19;69.69
61318;BME280;47201;40.428;-8.436;2023-02-23T11:13:39;100708.88;;;22.02;70.06
61318;BME280;47201;40.428;-8.436;2023-02-23T11:16:05;100705.09;;;22.43;69.44
61318;BME280;47201;40.428;-8.436;2023-02-23T11:18:27;100690.47;;;22.15;69.11
61318;BME280;47201;40.428;-8.436;2023-02-23T11:20:32;100697.66;;;21.96;70.06
61318;BME280;47201;40.428;-8.436;2023-02-23T11:22:38;100703.53;;;21.47;70.63
61318;BME280;47201;40.428;-8.436;2023-02-23T11:24:40;100704.94;;;21.92;70.66
61318;BME280;47201;40.428;-8.436;2023-02-23T11:27:00;100699.34;;;22.51;69.92
61318;BME280;47201;40.428;-8.436;2023-02-23T11:29:13;100702.38;;;21.91;70.66
61318;BME280;47201;40.428;-8.436;2023-02-23T11:31:19;100707.69;;;21.91;70.77
61318;BME280;47201;40.428;-8.436;2023-02-23T11:33:23;100700.31;;;21.96;70.94
61318;BME280;47201;40.428;-8.436;2023-02-23T11:35:28;100697.88;;;21.91;71.03
61318;BME280;47201;40.428;-8.436;2023-02-23T11:37:30;100691.38;;;22.51;69.71
61318;BME280;47201;40.428;-8.436;2023-02-23T11:39:30;100696.44;;;22.38;70.17
61318;BME280;47201;40.428;-8.436;2023-02-23T11:41:31;100702.63;;;22.03;70.30
61318;BME280;47201;40.428;-8.436;2023-02-23T11:43:36;100678.91;;;21.99;71.21
61318;BME280;47201;40.428;-8.436;2023-02-23T11:45:46;100694.31;;;21.54;71.32
61318;BME280;47201;40.428;-8.436;2023-02-23T11:47:48;100687.66;;;21.26;72.44
61318;BME280;47201;40.428;-8.436;2023-02-23T11:49:50;100697.34;;;21.08;72.76
61318;BME280;47201;40.428;-8.436;2023-02-23T11:51:51;100679.66;;;21.45;71.23
61318;BME280;47201;40.428;-8.436;2023-02-23T11:53:53;100673.06;;;21.35;71.18
61318;BME280;47201;40.428;-8.436;2023-02-23T11:55:59;100667.50;;;21.78;71.06
61318;BME280;47201;40.428;-8.436;2023-02-23T11:58:08;100672.00;;;22.12;71.38
61318;BME280;47201;40.428;-8.436;2023-02-23T12:00:12;100668.59;;;21.74;71.20
61318;BME280;47201;40.428;-8.436;2023-02-23T12:06:41;100661.91;;;20.68;72.82
61318;BME280;47201;40.428;-8.436;2023-02-23T12:08:48;100652.97;;;21.29;71.47
61318;BME280;47201;40.428;-8.436;2023-02-23T12:10:53;100660.53;;;21.56;71.06
61318;BME280;47201;40.428;-8.436;2023-02-23T12:17:33;100643.81;;;19.95;74.76